Time;durP1;ratioP1;P1;durP2;ratioP2;P2;SDS_P1;SDS_P2;PMS_P1;PMS_P2;Temp;Humidity;BMP_temperature;BMP_pressure;BME280_temperature;BME280_humidity;BME280_pressure;Samples;Min_cycle;Max_cycle;Signal;HPM_P1;HPM_P2
2023/10/28 00:02:01;;;;;;;14.00;8.60;;;;;;;19.68;67.60;97313.51;108033;1254;72679;-67
2023/10/28 00:04:31;;;;;;;17.10;8.60;;;;;;;19.70;67.00;97302.34;108022;1257;62034;-66
2023/10/28 00:06:59;;;;;;;19.30;8.80;;;;;;;19.61;67.66;97295.48;107951;1254;61023;-67
2023/10/28 00:09:26;;;;;;;13.10;8.60;;;;;;;19.60;67.77;97284.63;107965;1257;71768;-66
2023/10/28 00:11:54;;;;;;;18.70;8.90;;;;;;;19.63;67.88;97280.91;108029;1254;68744;-65
2023/10/28 00:14:23;;;;;;;17.70;8.90;;;;;;;19.67;67.82;97271.36;108023;1254;72428;-66
2023/10/28 00:16:50;;;;;;;16.50;8.80;;;;;;;19.56;68.62;97282.85;108022;1254;61721;-66
2023/10/28 00:19:19;;;;;;;15.30;8.50;;;;;;;19.49;69.33;97277.09;107971;1254;59443;-65
2023/10/28 00:21:46;;;;;;;19.70;10.10;;;;;;;19.38;70.25;97275.18;107981;1254;71957;-66
2023/10/28 00:24:14;;;;;;;13.60;9.40;;;;;;;19.61;69.16;97267.77;108054;1254;69953;-65
2023/10/28 00:26:42;;;;;;;15.30;8.60;;;;;;;19.54;69.49;97262.21;108035;1254;72789;-67
2023/10/28 00:29:11;;;;;;;14.50;8.70;;;;;;;19.50;69.42;97265.02;107890;1254;60483;-67
2023/10/28 00:31:39;;;;;;;14.20;7.80;;;;;;;19.59;69.50;97260.55;108065;1254;59471;-65
2023/10/28 00:34:06;;;;;;;17.90;7.70;;;;;;;19.64;69.53;97245.59;108110;1254;71725;-67
2023/10/28 00:36:34;;;;;;;16.40;8.40;;;;;;;19.69;69.23;97249.83;107976;1260;70269;-65
2023/10/28 00:39:03;;;;;;;21.50;9.20;;;;;;;19.69;69.62;97246.66;107933;1254;71070;-65
2023/10/28 00:41:32;;;;;;;16.50;8.30;;;;;;;19.73;69.29;97232.56;107931;1254;61898;-69
2023/10/28 00:43:59;;;;;;;14.20;7.40;;;;;;;19.71;69.23;97218.56;107916;1254;59399;-67
2023/10/28 00:46:26;;;;;;;14.70;7.90;;;;;;;19.67;69.49;97217.80;108051;1254;71764;-66
2023/10/28 00:48:55;;;;;;;18.00;8.30;;;;;;;19.79;69.02;97217.27;108064;1254;69986;-66
2023/10/28 00:51:23;;;;;;;15.20;7.70;;;;;;;19.93;68.51;97207.17;108053;1254;72434;-66
2023/10/28 00:53:50;;;;;;;15.70;7.50;;;;;;;19.78;69.05;97204.86;108043;1254;61660;-65
2023/10/28 00:56:18;;;;;;;17.50;7.60;;;;;;;19.76;68.92;97198.75;108005;1254;59996;-66
2023/10/28 00:58:47;;;;;;;15.70;7.30;;;;;;;19.87;68.85;97194.54;107863;1254;73046;-66
2023/10/28 01:01:14;;;;;;;15.20;7.20;;;;;;;19.85;68.79;97198.36;107980;1254;68700;-65
2023/10/28 01:03:42;;;;;;;17.40;7.40;;;;;;;20.04;68.18;97194.52;107928;1254;72066;-66
2023/10/28 01:06:09;;;;;;;14.90;7.40;;;;;;;19.99;68.24;97189.95;108015;1256;61726;-66
2023/10/28 01:08:38;;;;;;;15.20;7.50;;;;;;;20.07;67.87;97188.56;107926;1254;59955;-65
2023/10/28 01:11:05;;;;;;;14.10;6.70;;;;;;;20.24;67.30;97180.96;107925;1254;72082;-66
2023/10/28 01:13:33;;;;;;;18.10;7.00;;;;;;;20.21;67.20;97173.50;107972;1254;70755;-66
2023/10/28 01:16:00;;;;;;;19.50;7.10;;;;;;;20.28;66.83;97174.05;108029;1257;71391;-66
2023/10/28 01:18:28;;;;;;;13.10;6.70;;;;;;;20.33;66.55;97167.77;107885;1254;61652;-65
2023/10/28 01:20:55;;;;;;;13.70;7.60;;;;;;;20.41;66.20;97167.48;108048;1254;60922;-65
2023/10/28 01:23:23;;;;;;;16.60;7.10;;;;;;;20.48;65.90;97157.90;107886;1254;72608;-65
2023/10/28 01:25:50;;;;;;;12.00;6.90;;;;;;;20.32;66.28;97158.27;108109;1254;69595;-65
2023/10/28 01:28:18;;;;;;;14.10;7.20;;;;;;;20.38;66.22;97162.59;108246;1254;71357;-66
2023/10/28 01:30:45;;;;;;;13.90;6.50;;;;;;;20.45;65.77;97161.06;108213;1254;61063;-66
2023/10/28 01:33:13;;;;;;;17.50;6.40;;;;;;;20.59;65.19;97163.11;108100;1254;60310;-66
2023/10/28 01:35:40;;;;;;;17.50;6.30;;;;;;;20.61;64.84;97152.71;108102;1254;74008;-67
2023/10/28 01:38:09;;;;;;;14.20;6.20;;;;;;;20.53;65.22;97150.70;108098;1253;70590;-67
2023/10/28 01:40:36;;;;;;;14.10;5.90;;;;;;;20.54;65.04;97147.30;108095;1253;71438;-67
2023/10/28 01:43:04;;;;;;;13.00;6.30;;;;;;;20.55;64.95;97146.37;107981;1260;60380;-68
2023/10/28 01:45:32;;;;;;;12.70;5.80;;;;;;;20.69;64.54;97141.85;108033;1254;60489;-66
2023/10/28 01:47:59;;;;;;;13.30;5.20;;;;;;;20.86;63.71;97137.56;108134;1254;73164;-66
2023/10/28 01:50:27;;;;;;;12.10;5.30;;;;;;;20.71;64.24;97133.89;108099;1254;69626;-66
2023/10/28 01:52:55;;;;;;;13.30;6.40;;;;;;;20.82;63.45;97129.72;108119;1257;71472;-67
2023/10/28 01:55:22;;;;;;;10.30;5.10;;;;;;;20.83;63.71;97129.85;108134;1253;60644;-67
2023/10/28 01:57:50;;;;;;;18.30;5.20;;;;;;;20.71;64.30;97123.95;108209;1253;60480;-66
2023/10/28 02:00:18;;;;;;;10.50;4.90;;;;;;;20.82;63.43;97121.94;108094;1254;73835;-66
2023/10/28 02:02:46;;;;;;;13.40;5.40;;;;;;;20.84;63.44;97120.59;108144;1252;69220;-66
2023/10/28 02:05:15;;;;;;;12.50;5.20;;;;;;;20.83;63.19;97123.59;108078;1252;72913;-66
2023/10/28 02:07:43;;;;;;;9.30;4.80;;;;;;;20.98;62.91;97108.84;108100;1252;60430;-66
2023/10/28 02:10:10;;;;;;;10.10;4.80;;;;;;;20.93;62.87;97095.27;108091;1252;60337;-66
2023/10/28 02:12:38;;;;;;;11.40;4.60;;;;;;;20.85;62.97;97092.92;108176;1253;73132;-67
2023/10/28 02:15:07;;;;;;;10.10;4.30;;;;;;;20.73;63.20;97088.64;108081;1253;69593;-66
2023/10/28 02:17:35;;;;;;;16.20;5.20;;;;;;;20.92;62.58;97078.31;108101;1254;71418;-68
2023/10/28 02:20:04;;;;;;;11.90;4.20;;;;;;;21.06;61.84;97080.98;108089;1257;60513;-65
2023/10/28 02:22:32;;;;;;;10.70;4.20;;;;;;;21.01;62.09;97078.23;108159;1252;60335;-68
2023/10/28 02:24:59;;;;;;;13.50;5.00;;;;;;;20.77;62.61;97074.68;108071;1254;72635;-66
2023/10/28 02:27:27;;;;;;;11.20;4.00;;;;;;;20.82;62.56;97071.30;108198;1253;70271;-66
2023/10/28 02:29:54;;;;;;;11.50;4.20;;;;;;;20.85;62.64;97071.92;108176;1251;74965;-66
2023/10/28 02:32:22;;;;;;;14.00;4.70;;;;;;;20.88;62.32;97065.82;108268;1251;60388;-66
2023/10/28 02:34:49;;;;;;;9.10;3.80;;;;;;;20.70;62.83;97056.40;108215;1257;59613;-66
2023/10/28 02:37:17;;;;;;;11.90;4.30;;;;;;;20.79;62.52;97057.21;108348;1256;72108;-66
2023/10/28 02:39:44;;;;;;;14.10;3.90;;;;;;;20.85;62.01;97057.83;108368;1251;70158;-66
2023/10/28 02:42:12;;;;;;;8.40;3.70;;;;;;;20.60;62.92;97055.80;108222;1251;71896;-66
2023/10/28 02:44:39;;;;;;;7.50;3.60;;;;;;;20.62;62.34;97042.40;108346;1251;61599;-66
2023/10/28 02:47:07;;;;;;;8.60;3.80;;;;;;;20.84;61.48;97032.59;108388;1251;59990;-65
2023/10/28 02:49:36;;;;;;;5.90;3.30;;;;;;;20.86;61.03;97026.39;108203;1251;73245;-68
2023/10/28 02:52:04;;;;;;;8.70;3.50;;;;;;;20.85;60.73;97018.64;108281;1251;69695;-66
2023/10/28 02:54:32;;;;;;;5.00;2.70;;;;;;;20.79;60.96;97018.20;108348;1256;71940;-65
2023/10/28 02:57:00;;;;;;;8.20;3.30;;;;;;;20.79;60.12;97017.91;108292;1251;60684;-66
2023/10/28 02:59:28;;;;;;;8.60;3.90;;;;;;;21.14;59.13;97024.36;108219;1251;60303;-65
2023/10/28 03:01:58;;;;;;;8.20;2.70;;;;;;;20.93;59.08;97034.27;108245;1251;73382;-66
2023/10/28 03:04:26;;;;;;;2.40;1.40;;;;;;;20.81;56.81;97049.85;108236;1251;68922;-67
2023/10/28 03:06:53;;;;;;;3.80;0.90;;;;;;;20.56;54.17;97065.27;108338;1251;72690;-65
2023/10/28 03:09:21;;;;;;;6.60;1.20;;;;;;;20.50;53.34;97068.91;108409;1251;61650;-65
2023/10/28 03:11:48;;;;;;;2.50;0.80;;;;;;;20.53;52.53;97067.43;108394;1251;60074;-65
2023/10/28 03:14:15;;;;;;;6.00;1.10;;;;;;;20.34;52.70;97063.34;108349;1251;73123;-66
2023/10/28 03:16:44;;;;;;;2.70;0.80;;;;;;;20.49;52.01;97059.39;108244;1251;70310;-65
2023/10/28 03:19:12;;;;;;;3.80;0.70;;;;;;;20.21;51.33;97072.25;108227;1251;73301;-66
2023/10/28 03:21:39;;;;;;;1.00;0.50;;;;;;;20.19;50.90;97070.77;108236;1251;60431;-65
2023/10/28 03:24:07;;;;;;;1.80;0.50;;;;;;;20.22;50.52;97062.89;108173;1258;60161;-66
2023/10/28 03:26:35;;;;;;;2.00;0.70;;;;;;;20.13;50.39;97075.05;108187;1251;73872;-67
2023/10/28 03:29:50;;;;;;;0.90;0.60;;;;;;;18.59;54.30;97065.88;105090;1290;600968;-66
2023/10/28 03:32:18;;;;;;;0.30;0.30;;;;;;;19.48;51.66;97057.61;108224;1251;60481;-65
2023/10/28 03:34:47;;;;;;;4.70;0.60;;;;;;;19.41;51.73;97046.41;108169;1251;59181;-64
2023/10/28 03:37:14;;;;;;;1.80;0.50;;;;;;;19.45;51.58;97043.45;108265;1251;69978;-65
2023/10/28 03:39:42;;;;;;;4.40;0.70;;;;;;;19.78;50.79;97035.27;108265;1251;70626;-67
2023/10/28 03:42:11;;;;;;;1.20;0.70;;;;;;;19.75;50.21;97032.75;108249;1251;73135;-67
2023/10/28 03:44:39;;;;;;;2.50;0.60;;;;;;;19.74;50.28;97025.10;108237;1251;156448;-67
2023/10/28 03:47:07;;;;;;;0.80;0.50;;;;;;;19.68;50.30;97017.55;108348;1251;59221;-67
2023/10/28 03:49:35;;;;;;;1.80;0.90;;;;;;;19.77;50.09;97013.67;108351;1251;71415;-66
2023/10/28 03:52:02;;;;;;;4.30;0.80;;;;;;;19.75;49.78;97011.80;108362;1251;70573;-66
2023/10/28 03:54:30;;;;;;;2.80;0.80;;;;;;;19.54;50.37;97003.76;108340;1255;72681;-65
2023/10/28 03:56:57;;;;;;;1.30;0.60;;;;;;;19.60;50.42;97001.74;108335;1250;61716;-67
2023/10/28 03:59:24;;;;;;;4.20;0.90;;;;;;;19.63;50.47;96996.05;108400;1251;59023;-65
2023/10/28 04:01:52;;;;;;;1.90;0.70;;;;;;;19.71;50.18;96991.44;108354;1254;73054;-67
2023/10/28 04:04:20;;;;;;;3.00;0.70;;;;;;;19.67;50.35;96985.91;108331;1251;69263;-67
2023/10/28 04:06:47;;;;;;;1.00;0.80;;;;;;;19.74;50.23;96982.41;108341;1251;70049;-66
2023/10/28 04:09:15;;;;;;;0.70;0.70;;;;;;;19.54;50.46;96976.59;108326;1251;61627;-67
2023/10/28 04:11:42;;;;;;;2.30;0.70;;;;;;;19.77;50.30;96975.02;108301;1251;59624;-66
2023/10/28 04:14:10;;;;;;;4.10;1.00;;;;;;;19.70;50.29;96965.21;108253;1251;71817;-67
2023/10/28 04:16:37;;;;;;;3.80;0.70;;;;;;;19.60;50.37;96956.40;108220;1254;68843;-66
2023/10/28 04:19:05;;;;;;;2.00;0.80;;;;;;;19.16;50.96;96970.81;108162;1254;71278;-67
2023/10/28 04:21:32;;;;;;;1.70;0.60;;;;;;;19.24;51.13;96957.44;108158;1254;61823;-68
2023/10/28 04:23:59;;;;;;;3.70;0.90;;;;;;;19.48;50.50;96941.95;108175;1254;59634;-66
2023/10/28 04:26:27;;;;;;;4.20;1.10;;;;;;;19.35;50.72;96950.24;108160;1252;72001;-66
2023/10/28 04:28:59;;;;;;;2.50;0.60;;;;;;;19.26;50.85;96942.76;108303;1251;70367;-66
2023/10/28 04:31:28;;;;;;;4.40;0.90;;;;;;;19.20;50.75;96933.95;108271;1251;71394;-67
2023/10/28 04:33:56;;;;;;;3.00;0.80;;;;;;;19.21;50.55;96931.80;108292;1251;61625;-67
2023/10/28 04:36:24;;;;;;;2.50;0.70;;;;;;;19.15;50.87;96923.50;108290;1251;59654;-67
2023/10/28 04:38:52;;;;;;;2.50;0.80;;;;;;;19.13;50.84;96923.95;108291;1251;73593;-66
2023/10/28 04:41:19;;;;;;;1.30;0.70;;;;;;;18.85;51.20;96924.73;108260;1251;68705;-66
2023/10/28 04:43:47;;;;;;;5.50;0.80;;;;;;;18.57;51.86;96929.75;108206;1256;72694;-66
2023/10/28 04:46:14;;;;;;;2.90;0.80;;;;;;;18.77;51.78;96918.56;108228;1251;61919;-66
2023/10/28 04:48:46;;;;;;;3.20;0.80;;;;;;;18.75;51.74;96912.85;108201;1251;60034;-66
2023/10/28 04:51:14;;;;;;;2.70;0.50;;;;;;;18.63;52.07;96924.63;108144;1251;73342;-66
2023/10/28 04:53:41;;;;;;;1.20;0.70;;;;;;;18.59;52.22;96909.73;108312;1251;69181;-67
2023/10/28 04:56:09;;;;;;;6.40;0.90;;;;;;;18.76;51.83;96912.25;108398;1254;72414;-66
2023/10/28 04:58:36;;;;;;;1.80;0.80;;;;;;;18.71;52.10;96905.99;108337;1251;60383;-66
2023/10/28 05:01:03;;;;;;;2.70;0.70;;;;;;;18.50;52.57;96910.52;108395;1251;60085;-66
2023/10/28 05:03:31;;;;;;;6.00;0.90;;;;;;;18.67;52.55;96898.63;108354;1256;72940;-66
2023/10/28 05:05:58;;;;;;;3.10;1.10;;;;;;;18.96;52.13;96902.82;108396;1251;70713;-65
2023/10/28 05:08:27;;;;;;;3.90;0.70;;;;;;;18.84;52.10;96902.36;108264;1254;72664;-66
2023/10/28 05:10:55;;;;;;;3.20;0.80;;;;;;;18.62;52.66;96909.08;108248;1254;61627;-67
2023/10/28 05:13:22;;;;;;;2.60;0.60;;;;;;;18.36;53.40;96903.45;108351;1251;59460;-67
2023/10/28 05:15:50;;;;;;;3.10;0.60;;;;;;;18.53;53.58;96896.34;108330;1251;71832;-66
2023/10/28 05:18:17;;;;;;;6.10;1.30;;;;;;;18.52;54.03;96901.41;108264;1251;68576;-67
2023/10/28 05:20:45;;;;;;;2.00;0.60;;;;;;;18.51;54.22;96891.14;108235;1251;74358;-67
2023/10/28 05:23:13;;;;;;;2.30;0.60;;;;;;;18.33;54.93;96889.52;108269;1251;62112;-66
2023/10/28 05:25:41;;;;;;;1.20;0.80;;;;;;;18.29;55.25;96895.45;108320;1251;59285;-67
2023/10/28 05:28:08;;;;;;;3.70;0.80;;;;;;;17.93;56.48;96895.39;108250;1253;71680;-66
2023/10/28 05:30:35;;;;;;;0.80;0.70;;;;;;;17.93;57.85;96887.23;107950;1254;71194;-66
2023/10/28 05:33:03;;;;;;;3.10;0.80;;;;;;;17.74;58.98;96890.48;108094;1254;71667;-66
2023/10/28 05:35:30;;;;;;;1.80;0.70;;;;;;;17.59;59.75;96889.84;108002;1254;61732;-66
2023/10/28 05:37:58;;;;;;;2.80;0.70;;;;;;;17.38;61.04;96892.63;108033;1254;59528;-67
2023/10/28 05:40:25;;;;;;;2.10;0.50;;;;;;;17.50;60.91;96894.48;108045;1253;72800;-67
2023/10/28 05:42:54;;;;;;;0.70;0.50;;;;;;;17.30;62.02;96886.61;108090;1258;70118;-66
2023/10/28 05:45:22;;;;;;;2.60;0.70;;;;;;;17.18;63.24;96903.02;108043;1259;71406;-67
2023/10/28 05:47:49;;;;;;;3.60;0.80;;;;;;;17.07;63.57;96903.46;108051;1254;61706;-68
2023/10/28 05:50:17;;;;;;;0.70;0.70;;;;;;;16.61;65.24;96906.48;108136;1254;59384;-66
2023/10/28 05:52:45;;;;;;;1.30;0.60;;;;;;;16.81;65.19;96912.27;108028;1254;73131;-67
2023/10/28 05:55:12;;;;;;;1.30;0.80;;;;;;;16.63;65.61;96928.06;107991;1253;70039;-66
2023/10/28 05:57:40;;;;;;;2.30;0.70;;;;;;;16.82;65.04;96918.11;108008;1254;72632;-66
2023/10/28 06:00:11;;;;;;;2.30;0.70;;;;;;;16.79;65.04;96927.90;108040;1253;61941;-66
2023/10/28 06:02:39;;;;;;;1.10;0.80;;;;;;;16.68;65.21;96931.94;108027;1253;60011;-67
2023/10/28 06:05:07;;;;;;;2.10;0.80;;;;;;;16.67;65.77;96941.98;108073;1253;70873;-65
2023/10/28 06:07:34;;;;;;;1.10;0.50;;;;;;;16.79;65.18;96946.65;108066;1253;70432;-66
2023/10/28 06:10:04;;;;;;;0.70;0.60;;;;;;;16.59;65.64;96953.25;108011;1258;73169;-66
2023/10/28 06:12:32;;;;;;;2.80;0.90;;;;;;;16.45;66.05;96956.95;108174;1256;61686;-66
2023/10/28 06:14:59;;;;;;;3.40;0.90;;;;;;;16.48;66.30;96964.45;108040;1253;60015;-66
2023/10/28 06:17:26;;;;;;;4.30;0.90;;;;;;;16.47;66.51;96973.98;108130;1258;71872;-66
2023/10/28 06:19:54;;;;;;;1.20;0.80;;;;;;;16.29;66.80;96974.48;108059;1254;69167;-66
2023/10/28 06:22:21;;;;;;;1.10;0.80;;;;;;;16.18;67.35;96990.02;107953;1253;73170;-66
2023/10/28 06:24:49;;;;;;;1.30;0.90;;;;;;;16.22;66.85;96985.22;108068;1259;60406;-66
2023/10/28 06:27:16;;;;;;;5.00;0.90;;;;;;;16.27;66.77;96993.02;108046;1253;59547;-66
2023/10/28 06:29:44;;;;;;;4.20;1.10;;;;;;;16.44;66.22;96994.44;108166;1257;73482;-66
2023/10/28 06:32:12;;;;;;;1.10;1.00;;;;;;;16.69;65.43;97002.69;108061;1258;70118;-67
2023/10/28 06:34:40;;;;;;;3.30;1.00;;;;;;;16.80;64.87;97008.74;108152;1254;72797;-67
2023/10/28 06:37:07;;;;;;;0.80;0.70;;;;;;;16.56;65.63;97011.23;108262;1254;61728;-66
2023/10/28 06:39:35;;;;;;;0.80;0.80;;;;;;;16.55;65.71;97025.12;108258;1252;59455;-67
2023/10/28 06:42:04;;;;;;;1.40;1.10;;;;;;;16.26;66.65;97033.27;108216;1256;72995;-66
2023/10/28 06:44:33;;;;;;;2.00;1.20;;;;;;;16.70;65.52;97036.38;108104;1257;70832;-66
2023/10/28 06:47:00;;;;;;;1.30;1.20;;;;;;;16.97;64.48;97041.55;108174;1254;72665;-67
2023/10/28 06:49:27;;;;;;;1.00;0.80;;;;;;;16.66;65.26;97045.98;108140;1254;60423;-66
2023/10/28 06:51:55;;;;;;;1.60;1.10;;;;;;;16.43;65.61;97060.77;108261;1254;59349;-66
2023/10/28 06:54:24;;;;;;;3.40;1.10;;;;;;;16.51;65.39;97064.34;108144;1254;72944;-66
2023/10/28 06:56:51;;;;;;;2.70;1.00;;;;;;;16.45;65.31;97075.98;108148;1254;68813;-66
2023/10/28 06:59:19;;;;;;;1.50;1.20;;;;;;;16.47;65.20;97086.23;108332;1253;71263;-66
2023/10/28 07:01:46;;;;;;;1.20;1.10;;;;;;;16.76;64.15;97093.13;108293;1254;60801;-66
2023/10/28 07:04:14;;;;;;;1.20;0.80;;;;;;;16.05;65.55;97103.37;108148;1256;59614;-66
2023/10/28 07:06:41;;;;;;;1.70;0.90;;;;;;;15.92;66.12;97108.04;108258;1257;73044;-66
2023/10/28 07:09:09;;;;;;;2.40;1.10;;;;;;;16.27;64.75;97131.40;108207;1256;70094;-66
2023/10/28 07:11:36;;;;;;;0.70;0.70;;;;;;;16.37;64.10;97140.45;108169;1258;72645;-66
2023/10/28 07:14:04;;;;;;;3.20;1.20;;;;;;;16.31;63.62;97145.70;108089;1254;61696;-66
2023/10/28 07:16:31;;;;;;;1.80;1.10;;;;;;;16.21;63.27;97153.14;108098;1254;59978;-66
2023/10/28 07:18:59;;;;;;;2.90;1.10;;;;;;;16.35;63.10;97171.59;108106;1256;73094;-66
2023/10/28 07:21:27;;;;;;;1.10;0.90;;;;;;;16.21;63.07;97174.20;108270;1254;70293;-66
2023/10/28 07:23:54;;;;;;;1.80;1.30;;;;;;;16.01;63.49;97184.83;108196;1254;72823;-66
2023/10/28 07:26:22;;;;;;;2.60;1.10;;;;;;;16.10;63.12;97195.92;108216;1253;60686;-66
2023/10/28 07:28:50;;;;;;;1.90;1.30;;;;;;;15.89;63.33;97207.31;108170;1255;59643;-66
2023/10/28 07:31:17;;;;;;;2.90;1.30;;;;;;;15.82;63.24;97208.76;108059;1254;71923;-66
2023/10/28 07:33:45;;;;;;;2.30;1.10;;;;;;;15.92;62.74;97207.13;108062;1254;68971;-66
2023/10/28 07:36:13;;;;;;;2.00;1.70;;;;;;;16.06;62.44;97222.19;108062;1254;71476;-66
2023/10/28 07:38:41;;;;;;;3.40;1.00;;;;;;;15.88;62.16;97238.89;107922;1254;61605;-66
2023/10/28 07:41:08;;;;;;;0.80;0.80;;;;;;;16.02;61.73;97245.55;108015;1253;60310;-66
2023/10/28 07:43:36;;;;;;;2.60;1.40;;;;;;;15.78;61.90;97256.39;108125;1257;74085;-67
2023/10/28 07:46:04;;;;;;;1.30;1.20;;;;;;;15.66;62.08;97248.10;108043;1254;70946;-66
2023/10/28 07:48:32;;;;;;;1.40;1.30;;;;;;;15.62;61.76;97261.26;108018;1254;71806;-66
2023/10/28 07:50:59;;;;;;;1.50;1.30;;;;;;;15.90;61.36;97261.12;108131;1254;61764;-66
2023/10/28 07:53:27;;;;;;;4.80;1.20;;;;;;;15.95;61.11;97284.70;108119;1255;60469;-66
2023/10/28 07:55:54;;;;;;;1.30;1.20;;;;;;;15.64;61.38;97279.55;108110;1254;73838;-66
2023/10/28 07:58:21;;;;;;;4.50;1.60;;;;;;;15.62;61.41;97289.43;108124;1254;69373;-66
2023/10/28 08:00:51;;;;;;;2.50;1.20;;;;;;;15.66;61.11;97287.20;107999;1254;70535;-66
2023/10/28 08:03:18;;;;;;;0.90;0.90;;;;;;;16.06;60.00;97304.05;107980;1254;61077;-67
2023/10/28 08:05:46;;;;;;;1.50;1.20;;;;;;;16.26;59.42;97308.56;108020;1259;60271;-67
2023/10/28 08:08:13;;;;;;;1.80;1.30;;;;;;;16.61;58.58;97313.49;108207;1254;76445;-66
2023/10/28 08:10:41;;;;;;;2.60;1.30;;;;;;;16.58;58.32;97326.56;108078;1254;70306;-66
2023/10/28 08:13:09;;;;;;;1.70;1.20;;;;;;;16.41;58.58;97338.84;108117;1254;71318;-66
2023/10/28 08:15:36;;;;;;;4.90;1.20;;;;;;;16.28;58.63;97352.39;108044;1254;61737;-67
2023/10/28 08:18:04;;;;;;;1.20;1.00;;;;;;;16.04;58.91;97379.00;108063;1257;60619;-66
2023/10/28 08:20:32;;;;;;;2.10;1.40;;;;;;;16.61;57.91;97367.96;108099;1254;72691;-66
2023/10/28 08:23:00;;;;;;;2.30;1.40;;;;;;;16.95;57.08;97389.79;107921;1257;68939;-66
2023/10/28 08:25:27;;;;;;;1.80;1.10;;;;;;;17.32;55.90;97396.42;107962;1257;71390;-67
2023/10/28 08:29:56;;;;;;;2.00;1.60;;;;;;;16.26;58.68;97428.95;106821;1282;613955;-93
2023/10/28 08:33:25;;;;;;;2.70;1.40;;;;;;;16.50;57.58;97451.44;108858;1265;61539;-91
2023/10/28 08:36:37;;;;;;;2.10;1.50;;;;;;;16.26;58.28;97465.54;109300;1257;61700;-92
2023/10/28 08:39:34;;;;;;;1.50;1.30;;;;;;;16.52;58.38;97479.17;108954;1257;71506;-94
2023/10/28 08:46:00;;;;;;;2.60;1.50;;;;;;;16.28;60.47;97505.01;108830;1256;71770;-94
2023/10/28 08:49:06;;;;;;;2.80;1.50;;;;;;;16.31;61.22;97519.59;108719;1255;62101;-94
2023/10/28 08:52:00;;;;;;;2.40;1.30;;;;;;;16.64;60.88;97534.06;108596;1256;60555;-95
2023/10/28 08:54:58;;;;;;;4.20;1.50;;;;;;;16.76;60.73;97533.95;109171;1252;70894;-95
2023/10/28 08:58:03;;;;;;;3.90;1.80;;;;;;;17.17;59.63;97536.96;109409;1252;69173;-94
2023/10/28 09:00:46;;;;;;;1.90;1.40;;;;;;;17.00;59.97;97557.98;109109;1252;71198;-94
2023/10/28 09:03:51;;;;;;;2.10;1.40;;;;;;;16.88;59.52;97560.48;108871;1252;61390;-94
2023/10/28 09:06:31;;;;;;;2.70;1.30;;;;;;;16.92;59.12;97570.16;108640;1258;60298;-96
2023/10/28 09:09:17;;;;;;;2.50;1.50;;;;;;;16.95;59.16;97584.40;108996;1253;72974;-93
2023/10/28 09:11:50;;;;;;;2.30;1.80;;;;;;;16.63;60.32;97584.17;108518;1251;93267;-67
2023/10/28 09:14:17;;;;;;;3.20;1.80;;;;;;;16.50;60.14;97591.11;108003;1253;72444;-66
2023/10/28 09:16:43;;;;;;;3.10;1.50;;;;;;;16.58;59.85;97601.15;107956;1254;61779;-67
2023/10/28 09:19:21;;;;;;;2.60;1.60;;;;;;;16.66;59.68;97607.57;108006;1254;60117;-67
2023/10/28 09:21:48;;;;;;;1.30;1.20;;;;;;;16.69;59.39;97620.75;108026;1257;71808;-67
2023/10/28 09:24:18;;;;;;;3.10;1.60;;;;;;;16.53;59.76;97619.55;107993;1253;70340;-67
2023/10/28 09:26:46;;;;;;;2.00;1.70;;;;;;;16.86;58.73;97640.07;107975;1254;72436;-67
2023/10/28 09:29:33;;;;;;;3.30;1.70;;;;;;;16.51;59.40;97635.11;107980;1253;60417;-66
2023/10/28 09:32:08;;;;;;;2.70;1.70;;;;;;;16.45;59.78;97637.30;107968;1254;60040;-67
2023/10/28 09:34:40;;;;;;;2.30;1.70;;;;;;;16.37;59.87;97654.73;107963;1254;72250;-67
2023/10/28 09:37:07;;;;;;;1.50;1.40;;;;;;;16.62;59.26;97653.48;107932;1254;68954;-66
2023/10/28 09:39:35;;;;;;;2.40;1.60;;;;;;;16.69;58.73;97658.23;107892;1254;72483;-66
2023/10/28 09:42:04;;;;;;;2.50;1.60;;;;;;;16.80;58.18;97663.80;107880;1254;61979;-66
2023/10/28 09:44:34;;;;;;;2.00;1.60;;;;;;;16.80;58.15;97670.44;107799;1254;60077;-67
2023/10/28 09:47:01;;;;;;;2.50;1.80;;;;;;;16.90;57.79;97674.77;107911;1258;73095;-66
2023/10/28 09:49:29;;;;;;;2.20;1.60;;;;;;;16.95;57.58;97688.79;107863;1256;70430;-67
2023/10/28 09:52:05;;;;;;;1.60;1.40;;;;;;;16.75;58.01;97695.38;107881;1258;71790;-67
2023/10/28 09:54:34;;;;;;;2.50;1.80;;;;;;;16.74;58.50;97702.45;107957;1256;61259;-65
2023/10/28 09:57:01;;;;;;;1.90;1.40;;;;;;;17.02;57.82;97706.52;107859;1256;60119;-66
2023/10/28 09:59:30;;;;;;;2.20;1.60;;;;;;;17.10;57.46;97717.13;107827;1256;72994;-66
2023/10/28 10:02:01;;;;;;;3.00;2.10;;;;;;;16.93;57.85;97731.71;107868;1256;70343;-65
2023/10/28 10:04:43;;;;;;;3.30;1.90;;;;;;;17.07;57.66;97734.40;107849;1256;72381;-66
2023/10/28 10:07:09;;;;;;;2.00;1.50;;;;;;;17.28;57.42;97748.25;107883;1256;62506;-67
2023/10/28 10:09:43;;;;;;;3.10;1.80;;;;;;;17.45;56.80;97759.59;107765;1255;60120;-67
2023/10/28 10:12:12;;;;;;;3.10;1.90;;;;;;;17.20;57.59;97771.30;107870;1257;71637;-66
2023/10/28 10:14:45;;;;;;;1.80;1.70;;;;;;;17.68;56.60;97775.88;107899;1256;70185;-68
2023/10/28 10:17:50;;;;;;;3.60;1.90;;;;;;;17.68;56.32;97789.11;107898;1257;72624;-65
2023/10/28 10:20:28;;;;;;;4.10;2.10;;;;;;;17.79;56.11;97801.13;107608;1255;61919;-67
2023/10/28 10:23:10;;;;;;;2.40;2.20;;;;;;;17.65;56.24;97802.73;107978;1254;60379;-67
2023/10/28 10:25:43;;;;;;;3.90;2.00;;;;;;;17.57;56.48;97809.41;107669;1255;73007;-67
2023/10/28 10:28:15;;;;;;;3.20;1.90;;;;;;;17.49;56.40;97816.83;107783;1260;69198;-66
2023/10/28 10:30:42;;;;;;;3.30;1.90;;;;;;;17.41;56.41;97830.95;107994;1254;71426;-66
2023/10/28 10:33:11;;;;;;;5.20;1.60;;;;;;;17.47;56.19;97830.54;108003;1254;62047;-67
2023/10/28 10:35:38;;;;;;;3.40;2.20;;;;;;;17.55;55.73;97837.31;108016;1258;59494;-66
2023/10/28 10:38:07;;;;;;;2.50;2.20;;;;;;;17.67;55.38;97842.66;107981;1254;73109;-66
2023/10/28 10:40:46;;;;;;;4.90;2.60;;;;;;;17.79;55.00;97854.14;108057;1254;68832;-66
2023/10/28 10:43:12;;;;;;;3.60;2.30;;;;;;;17.86;54.42;97860.84;107977;1254;72492;-66
2023/10/28 10:45:39;;;;;;;3.40;2.20;;;;;;;17.75;54.40;97870.57;107713;1254;61870;-66
2023/10/28 10:48:08;;;;;;;2.50;1.90;;;;;;;17.81;54.10;97879.58;107664;1254;60218;-66
2023/10/28 10:50:35;;;;;;;4.20;2.00;;;;;;;17.85;53.63;97883.96;107748;1254;72981;-66
2023/10/28 10:53:03;;;;;;;2.80;2.10;;;;;;;18.04;53.14;97888.91;107962;1255;68993;-66
2023/10/28 10:55:30;;;;;;;2.10;1.70;;;;;;;18.04;53.02;97899.09;107947;1254;72695;-66
2023/10/28 10:57:57;;;;;;;2.10;1.80;;;;;;;18.09;52.51;97900.17;107966;1254;61865;-66
2023/10/28 11:00:24;;;;;;;2.30;2.00;;;;;;;18.21;52.03;97916.28;107992;1257;60332;-66
2023/10/28 11:02:53;;;;;;;5.10;2.20;;;;;;;18.19;52.00;97925.23;107939;1254;73035;-66
2023/10/28 11:05:20;;;;;;;2.20;1.80;;;;;;;18.31;51.57;97925.85;107849;1259;70074;-66
2023/10/28 11:07:49;;;;;;;2.20;1.70;;;;;;;18.10;52.14;97938.70;107997;1254;72440;-68
2023/10/28 11:10:15;;;;;;;2.90;1.90;;;;;;;17.73;52.62;97952.98;107976;1254;61659;-66
2023/10/28 11:12:42;;;;;;;2.20;1.80;;;;;;;18.04;52.05;97957.77;107962;1254;60216;-66
2023/10/28 11:15:10;;;;;;;2.00;1.80;;;;;;;18.13;51.96;97964.33;107986;1254;59529;-66
2023/10/28 11:17:40;;;;;;;2.40;1.80;;;;;;;18.43;51.44;97963.45;107983;1254;69155;-66
2023/10/28 11:20:09;;;;;;;2.00;1.70;;;;;;;18.49;51.40;97976.08;108076;1255;72554;-66
2023/10/28 11:22:37;;;;;;;3.50;2.10;;;;;;;18.54;50.97;97982.89;108019;1254;61863;-67
2023/10/28 11:25:04;;;;;;;2.40;1.90;;;;;;;18.52;50.91;97996.04;108004;1254;60073;-66
2023/10/28 11:27:31;;;;;;;7.00;2.70;;;;;;;18.82;50.41;98002.21;107969;1254;73061;-66
2023/10/28 11:30:03;;;;;;;2.90;2.30;;;;;;;18.63;50.40;98008.52;107970;1254;70047;-65
2023/10/28 11:32:37;;;;;;;6.10;3.00;;;;;;;18.98;49.64;98020.40;107967;1254;72508;-66
2023/10/28 11:35:04;;;;;;;1.90;1.70;;;;;;;19.23;48.96;98024.35;107925;1254;61776;-67
2023/10/28 11:37:30;;;;;;;1.60;1.50;;;;;;;19.28;48.49;98028.80;107944;1254;60034;-67
2023/10/28 11:39:57;;;;;;;10.20;1.40;;;;;;;19.70;47.67;98029.37;107854;1254;72905;-66
2023/10/28 11:42:24;;;;;;;2.20;1.70;;;;;;;20.06;46.96;98040.35;107708;1254;70149;-67